createdAt,value
2019-04-28T00:02:01.314Z,95.45
2019-04-28T00:04:31.952Z,95.34
2019-04-28T00:07:04.824Z,95.18
2019-04-28T00:09:35.237Z,94.99
2019-04-28T00:12:05.754Z,95.14
2019-04-28T00:14:36.396Z,95.63
2019-04-28T00:17:07.628Z,96.30
2019-04-28T00:19:37.831Z,96.43
2019-04-28T00:22:17.043Z,96.86
2019-04-28T00:25:05.267Z,97.11
2019-04-28T00:27:35.808Z,97.02
2019-04-28T00:30:07.643Z,97.09
2019-04-28T00:32:38.030Z,97.21
2019-04-28T00:35:08.332Z,97.45
2019-04-28T00:37:39.237Z,97.51
2019-04-28T00:40:11.095Z,97.23
2019-04-28T00:42:41.579Z,97.16
2019-04-28T00:45:12.427Z,97.56
2019-04-28T00:47:42.891Z,97.82
2019-04-28T00:50:13.504Z,97.97
2019-04-28T00:52:43.628Z,98.09
2019-04-28T00:55:14.923Z,98.02
2019-04-28T00:57:45.108Z,97.53
2019-04-28T01:00:16.968Z,97.32
2019-04-28T01:02:47.582Z,97.40
2019-04-28T01:05:21.254Z,97.38
2019-04-28T01:07:51.561Z,97.65
2019-04-28T01:10:23.087Z,97.48
2019-04-28T01:12:53.531Z,97.60
2019-04-28T01:15:32.724Z,97.65
2019-04-28T01:18:21.935Z,97.57
2019-04-28T01:20:52.040Z,97.50
2019-04-28T01:23:22.427Z,97.56
2019-04-28T01:25:52.889Z,97.90
2019-04-28T01:28:23.350Z,98.36
2019-04-28T01:31:15.492Z,98.60
2019-04-28T01:34:04.589Z,98.18
2019-04-28T01:36:36.634Z,98.11
2019-04-28T01:39:07.465Z,97.88
2019-04-28T01:41:39.720Z,98.09
2019-04-28T01:44:10.371Z,98.26
2019-04-28T01:46:40.809Z,98.22
2019-04-28T01:49:11.116Z,98.40
2019-04-28T01:51:41.662Z,98.45
2019-04-28T01:54:12.214Z,98.56
2019-04-28T01:56:42.404Z,98.63
2019-04-28T01:59:12.620Z,98.82
2019-04-28T02:01:42.869Z,98.94
2019-04-28T02:04:13.093Z,99.02
2019-04-28T02:06:43.360Z,99.00
2019-04-28T02:09:13.474Z,98.93
2019-04-28T02:11:43.724Z,98.74
2019-04-28T02:14:13.980Z,98.69
2019-04-28T02:16:44.114Z,98.78
2019-04-28T02:19:14.342Z,98.69
2019-04-28T02:22:00.022Z,98.62
2019-04-28T02:24:31.649Z,98.60
2019-04-28T02:27:03.338Z,98.61
2019-04-28T02:29:33.477Z,98.73
2019-04-28T02:32:04.390Z,98.83
2019-04-28T02:34:34.786Z,98.98
2019-04-28T02:37:05.438Z,99.14
2019-04-28T02:39:36.088Z,99.34
2019-04-28T02:42:06.354Z,98.95
2019-04-28T02:44:36.626Z,97.93
2019-04-28T02:47:06.897Z,98.19
2019-04-28T02:49:56.414Z,98.36
2019-04-28T02:52:44.448Z,98.44
2019-04-28T02:55:14.679Z,98.35
2019-04-28T02:57:44.901Z,98.26
2019-04-28T03:00:15.133Z,98.16
2019-04-28T03:02:45.295Z,97.89
2019-04-28T03:05:15.411Z,97.84
2019-04-28T03:07:45.672Z,97.95
2019-04-28T03:10:15.903Z,98.19
2019-04-28T03:12:46.067Z,97.92
2019-04-28T03:15:16.500Z,97.54
2019-04-28T03:17:46.673Z,97.37
2019-04-28T03:20:16.880Z,97.33
2019-04-28T03:22:47.040Z,97.24
2019-04-28T03:25:24.464Z,97.20
2019-04-28T03:28:22.873Z,97.92
2019-04-28T03:31:48.161Z,97.84
2019-04-28T03:33:53.652Z,97.64
2019-04-28T03:36:23.573Z,97.28
2019-04-28T03:38:53.163Z,97.11
2019-04-28T03:41:23.602Z,96.88
2019-04-28T03:43:53.725Z,96.73
2019-04-28T03:46:26.786Z,96.93
2019-04-28T03:48:57.218Z,97.05
2019-04-28T03:51:27.469Z,97.33
2019-04-28T03:54:00.593Z,98.31
2019-04-28T03:56:31.018Z,98.61
2019-04-28T03:59:01.574Z,98.61
2019-04-28T04:01:33.105Z,98.22
2019-04-28T04:04:03.702Z,98.68
2019-04-28T04:06:35.028Z,98.64
2019-04-28T04:09:06.341Z,98.43
2019-04-28T04:11:42.409Z,98.31
2019-04-28T04:14:25.039Z,98.05
2019-04-28T04:17:03.443Z,97.92
2019-04-28T04:19:36.075Z,98.01
2019-04-28T04:22:06.430Z,97.60
2019-04-28T04:24:36.785Z,97.90
2019-04-28T04:27:07.058Z,98.13
2019-04-28T04:29:37.400Z,99.00
2019-04-28T04:32:15.565Z,99.42
2019-04-28T04:34:40.726Z,99.71
2019-04-28T04:37:12.652Z,99.88
2019-04-28T04:39:43.115Z,99.36
2019-04-28T04:42:13.346Z,99.29
2019-04-28T04:44:44.574Z,99.24
2019-04-28T04:47:16.265Z,99.25
2019-04-28T04:49:46.769Z,99.06
2019-04-28T04:52:17.003Z,99.12
2019-04-28T04:54:47.228Z,99.09
2019-04-28T04:57:17.460Z,98.93
2019-04-28T04:59:49.880Z,98.90
2019-04-28T05:02:51.100Z,98.83
2019-04-28T05:05:27.904Z,98.79
2019-04-28T05:07:58.068Z,98.68
2019-04-28T05:10:30.315Z,98.64
2019-04-28T05:13:00.383Z,98.70
2019-04-28T05:15:30.710Z,98.86
2019-04-28T05:18:00.811Z,98.57
2019-04-28T05:20:31.109Z,98.49
2019-04-28T05:23:09.581Z,98.22
2019-04-28T05:25:42.083Z,97.98
2019-04-28T05:28:12.328Z,98.15
2019-04-28T05:30:43.093Z,98.16
2019-04-28T05:33:30.709Z,98.12
2019-04-28T05:36:02.962Z,96.93
2019-04-28T05:38:31.559Z,95.95
2019-04-28T05:41:02.680Z,93.76
2019-04-28T05:43:34.095Z,93.54
2019-04-28T05:46:06.722Z,92.84
2019-04-28T05:48:45.704Z,92.11
2019-04-28T05:51:19.887Z,88.65
2019-04-28T05:53:56.558Z,85.28
2019-04-28T05:56:36.870Z,82.81
2019-04-28T05:59:12.040Z,80.28
2019-04-28T06:02:16.719Z,79.03
2019-04-28T06:04:46.879Z,76.74
2019-04-28T06:07:23.872Z,71.86
2019-04-28T06:09:54.950Z,68.30
2019-04-28T06:12:25.338Z,67.60
2019-04-28T06:14:55.589Z,65.03
2019-04-28T06:17:26.138Z,63.32
2019-04-28T06:19:56.734Z,62.35
2019-04-28T06:22:26.934Z,60.09
2019-04-28T06:24:57.113Z,61.71
2019-04-28T06:27:27.390Z,62.30
2019-04-28T06:29:57.675Z,59.08
2019-04-28T06:32:27.927Z,58.93
2019-04-28T06:34:58.338Z,59.41
2019-04-28T06:37:29.202Z,57.78
2019-04-28T06:39:59.325Z,57.01
2019-04-28T06:42:29.518Z,57.76
2019-04-28T06:44:59.728Z,58.28
2019-04-28T06:47:30.499Z,54.35
2019-04-28T06:50:00.991Z,55.51
2019-04-28T06:52:31.270Z,53.06
2019-04-28T06:55:01.650Z,52.79
2019-04-28T06:57:32.200Z,54.59
2019-04-28T07:00:02.677Z,55.26
2019-04-28T07:02:34.830Z,55.33
2019-04-28T07:05:06.803Z,54.59
2019-04-28T07:07:37.181Z,53.71
2019-04-28T07:10:07.865Z,54.17
2019-04-28T07:12:39.163Z,53.74
2019-04-28T07:15:09.759Z,56.40
2019-04-28T07:17:40.267Z,58.74
2019-04-28T07:20:31.427Z,60.41
2019-04-28T07:23:01.859Z,61.22
2019-04-28T07:25:32.145Z,63.46
2019-04-28T07:28:02.558Z,62.66
2019-04-28T07:30:33.100Z,62.11
2019-04-28T07:33:03.679Z,65.42
2019-04-28T07:35:33.992Z,67.22
2019-04-28T07:38:04.314Z,67.41
2019-04-28T07:40:34.537Z,67.07
2019-04-28T07:43:04.900Z,67.98
2019-04-28T07:45:35.436Z,68.67
2019-04-28T07:48:05.814Z,67.11
2019-04-28T07:50:36.060Z,66.75
2019-04-28T07:53:12.004Z,68.17
2019-04-28T07:55:44.094Z,63.99
2019-04-28T07:58:16.240Z,64.16
2019-04-28T08:00:48.769Z,63.57
2019-04-28T08:03:19.394Z,64.52
2019-04-28T08:05:49.811Z,62.46
2019-04-28T08:08:20.145Z,63.23
2019-04-28T08:10:50.562Z,62.98
2019-04-28T08:13:21.597Z,61.89
2019-04-28T08:15:52.366Z,60.61
2019-04-28T08:18:23.005Z,60.77
2019-04-28T08:20:53.610Z,61.21
2019-04-28T08:23:24.295Z,58.66
2019-04-28T08:25:55.565Z,57.55
2019-04-28T08:28:25.864Z,55.70
2019-04-28T08:30:56.799Z,54.63
2019-04-28T08:33:47.174Z,54.87
2019-04-28T08:36:17.583Z,54.27
2019-04-28T08:38:48.010Z,52.14
2019-04-28T08:41:18.666Z,51.46
2019-04-28T08:43:49.505Z,46.07
2019-04-28T08:46:20.244Z,41.10
2019-04-28T08:48:50.692Z,41.78
2019-04-28T08:51:21.260Z,43.69
2019-04-28T08:53:51.809Z,43.78
2019-04-28T08:56:22.051Z,44.02
2019-04-28T08:58:52.327Z,45.41
2019-04-28T09:01:24.818Z,46.35
2019-04-28T09:03:55.301Z,50.51
2019-04-28T09:06:25.707Z,50.92
2019-04-28T09:08:56.974Z,48.29
2019-04-28T09:11:27.466Z,46.15
2019-04-28T09:13:57.950Z,40.08
2019-04-28T09:16:28.689Z,35.73
2019-04-28T09:18:59.079Z,31.75
2019-04-28T09:21:29.534Z,27.83
2019-04-28T09:24:00.178Z,26.39
2019-04-28T09:26:30.602Z,26.02
2019-04-28T09:29:01.340Z,25.54
2019-04-28T09:31:31.655Z,24.78
2019-04-28T09:34:02.221Z,25.93
2019-04-28T09:36:33.824Z,24.44
2019-04-28T09:39:06.114Z,23.98
2019-04-28T09:41:39.002Z,26.32
2019-04-28T09:44:15.410Z,26.96
2019-04-28T09:46:46.039Z,26.78
2019-04-28T09:49:16.730Z,25.84
2019-04-28T09:51:46.133Z,26.13
2019-04-28T09:54:19.441Z,29.21
2019-04-28T09:56:56.857Z,30.65
2019-04-28T09:59:23.225Z,33.98
2019-04-28T10:01:53.550Z,35.88
2019-04-28T10:04:24.581Z,36.44
2019-04-28T10:06:55.577Z,39.48
2019-04-28T10:09:26.375Z,41.77
2019-04-28T10:11:56.759Z,46.64
2019-04-28T10:14:27.744Z,52.83
2019-04-28T10:16:58.447Z,55.66
2019-04-28T10:19:29.410Z,56.50
2019-04-28T10:22:00.167Z,55.86
2019-04-28T10:24:30.825Z,55.57
2019-04-28T10:27:01.405Z,57.34
2019-04-28T10:29:32.993Z,57.45
2019-04-28T10:32:03.840Z,59.75
2019-04-28T10:34:34.340Z,62.02
2019-04-28T10:37:05.272Z,61.28
2019-04-28T10:39:47.881Z,60.91
2019-04-28T10:42:18.442Z,62.16
2019-04-28T10:44:50.123Z,61.13
2019-04-28T10:47:20.648Z,59.00
2019-04-28T10:49:51.311Z,59.80
2019-04-28T10:52:21.725Z,59.38
2019-04-28T10:54:52.156Z,58.97
2019-04-28T10:57:22.457Z,59.65
2019-04-28T10:59:52.724Z,61.26
2019-04-28T11:02:23.326Z,61.54
2019-04-28T11:05:08.730Z,61.76
2019-04-28T11:07:38.526Z,57.77
2019-04-28T11:10:14.310Z,60.01
2019-04-28T11:12:44.892Z,54.53
2019-04-28T11:15:23.503Z,48.81
2019-04-28T11:17:53.921Z,43.30
2019-04-28T11:20:25.330Z,39.69
2019-04-28T11:22:55.733Z,36.88
2019-04-28T11:25:25.997Z,29.77
2019-04-28T11:27:56.617Z,29.77
2019-04-28T11:30:28.940Z,30.01
2019-04-28T11:33:18.533Z,28.53
2019-04-28T11:35:48.996Z,26.14
2019-04-28T11:38:19.198Z,29.31
2019-04-28T11:40:49.547Z,32.87
2019-04-28T11:43:20.244Z,35.03
2019-04-28T11:45:50.926Z,39.17
2019-04-28T11:48:21.130Z,40.91
2019-04-28T11:50:52.145Z,45.78
2019-04-28T11:53:22.571Z,47.74
2019-04-28T11:55:53.314Z,47.25
2019-04-28T11:58:23.679Z,49.05
2019-04-28T12:00:54.134Z,50.49
2019-04-28T12:03:24.928Z,52.02
2019-04-28T12:05:55.281Z,51.77
2019-04-28T12:08:25.755Z,54.78
2019-04-28T12:11:31.479Z,55.01
2019-04-28T12:14:18.575Z,53.81
2019-04-28T12:17:03.897Z,56.10
2019-04-28T12:19:39.080Z,55.99
2019-04-28T12:22:09.628Z,54.11
2019-04-28T12:24:40.160Z,53.50
2019-04-28T12:27:10.637Z,54.70
2019-04-28T12:29:41.018Z,52.14
2019-04-28T12:32:11.444Z,56.43
2019-04-28T12:34:41.851Z,56.26
2019-04-28T12:37:12.496Z,54.46
2019-04-28T12:39:42.951Z,52.45
2019-04-28T12:42:13.212Z,50.72
2019-04-28T12:44:43.514Z,51.38
2019-04-28T12:47:13.752Z,48.82
2019-04-28T12:50:00.995Z,46.76
2019-04-28T12:52:32.337Z,45.58
2019-04-28T12:55:04.137Z,44.11
2019-04-28T12:57:34.622Z,41.44
2019-04-28T13:00:34.186Z,39.97
2019-04-28T13:03:19.222Z,40.72
2019-04-28T13:06:01.133Z,38.49
2019-04-28T13:08:22.282Z,37.28
2019-04-28T13:10:52.762Z,35.80
2019-04-28T13:13:23.135Z,33.46
2019-04-28T13:15:53.497Z,31.92
2019-04-28T13:18:24.090Z,28.81
2019-04-28T13:20:54.394Z,26.07
2019-04-28T13:23:24.890Z,25.72
2019-04-28T13:25:55.588Z,26.12
2019-04-28T13:28:25.992Z,24.86
2019-04-28T13:30:56.379Z,24.83
2019-04-28T13:33:26.793Z,25.42
2019-04-28T13:35:57.441Z,23.77
2019-04-28T13:38:27.904Z,25.62
2019-04-28T13:40:58.679Z,26.08
2019-04-28T13:43:29.153Z,28.07
2019-04-28T13:45:59.952Z,29.58
2019-04-28T13:48:30.447Z,31.31
2019-04-28T13:51:00.772Z,32.22
2019-04-28T13:53:31.023Z,32.25
2019-04-28T13:56:03.552Z,33.20
2019-04-28T13:58:46.437Z,34.31
2019-04-28T14:01:45.133Z,32.68
2019-04-28T14:04:26.810Z,32.76
2019-04-28T14:07:02.274Z,32.77
2019-04-28T14:09:32.510Z,33.09
2019-04-28T14:12:03.241Z,36.57
2019-04-28T14:14:33.667Z,40.91
2019-04-28T14:17:04.248Z,41.49
2019-04-28T14:19:34.531Z,41.49
2019-04-28T14:22:05.708Z,43.49
2019-04-28T14:24:36.497Z,44.75
2019-04-28T14:27:06.854Z,43.60
2019-04-28T14:29:37.246Z,42.13
2019-04-28T14:32:07.989Z,41.66
2019-04-28T14:34:38.507Z,41.67
2019-04-28T14:37:08.848Z,43.44
2019-04-28T14:39:39.620Z,41.74
2019-04-28T14:42:10.236Z,42.27
2019-04-28T14:44:41.030Z,42.52
2019-04-28T14:47:11.396Z,42.69
2019-04-28T14:49:41.770Z,44.06
2019-04-28T14:52:12.461Z,42.75
2019-04-28T14:54:42.999Z,41.84
2019-04-28T14:57:13.318Z,41.62
2019-04-28T14:59:43.732Z,40.42
2019-04-28T15:02:39.558Z,41.25
2019-04-28T15:05:41.005Z,42.00
2019-04-28T15:08:20.562Z,44.33
2019-04-28T15:10:57.204Z,41.59
2019-04-28T15:13:27.633Z,42.23
2019-04-28T15:15:58.175Z,43.06
2019-04-28T15:18:28.749Z,42.15
2019-04-28T15:20:59.273Z,41.91
2019-04-28T15:23:31.002Z,41.38
2019-04-28T15:26:01.379Z,42.07
2019-04-28T15:28:32.063Z,42.02
2019-04-28T15:31:02.658Z,43.42
2019-04-28T15:33:32.938Z,44.74
2019-04-28T15:36:03.133Z,44.36
2019-04-28T15:38:33.820Z,45.13
2019-04-28T15:41:04.480Z,44.59
2019-04-28T15:43:35.115Z,44.33
2019-04-28T15:46:05.691Z,44.17
2019-04-28T15:48:36.198Z,44.44
2019-04-28T15:51:06.639Z,44.23
2019-04-28T15:53:38.127Z,44.83
2019-04-28T15:56:19.167Z,43.89
2019-04-28T15:58:49.513Z,44.23
2019-04-28T16:01:19.874Z,50.08
2019-04-28T16:03:50.434Z,48.83
2019-04-28T16:06:20.979Z,50.44
2019-04-28T16:08:51.475Z,49.01
2019-04-28T16:11:22.044Z,46.33
2019-04-28T16:13:52.655Z,47.63
2019-04-28T16:16:23.219Z,48.31
2019-04-28T16:18:53.845Z,48.72
2019-04-28T16:21:24.256Z,49.09
2019-04-28T16:23:54.592Z,50.61
2019-04-28T16:26:25.183Z,52.52
2019-04-28T16:28:55.601Z,53.24
2019-04-28T16:31:26.225Z,52.02
2019-04-28T16:33:56.875Z,53.48
2019-04-28T16:36:27.257Z,56.17
2019-04-28T16:38:57.577Z,58.16
2019-04-28T16:41:29.431Z,58.04
2019-04-28T16:44:03.633Z,55.05
2019-04-28T16:46:33.965Z,56.31
2019-04-28T16:49:04.475Z,58.01
2019-04-28T16:51:35.163Z,58.57
2019-04-28T16:54:05.797Z,58.18
2019-04-28T16:57:00.932Z,55.74
2019-04-28T16:59:45.635Z,54.92
2019-04-28T17:02:28.851Z,55.97
2019-04-28T17:04:59.185Z,55.87
2019-04-28T17:07:29.809Z,55.20
2019-04-28T17:10:00.306Z,56.54
2019-04-28T17:12:30.637Z,57.58
2019-04-28T17:15:02.192Z,58.55
2019-04-28T17:17:32.714Z,61.77
2019-04-28T17:20:03.226Z,62.85
2019-04-28T17:22:34.905Z,61.85
2019-04-28T17:25:06.052Z,62.83
2019-04-28T17:27:36.732Z,61.33
2019-04-28T17:30:09.548Z,61.67
2019-04-28T17:32:40.187Z,62.44
2019-04-28T17:35:10.817Z,62.46
2019-04-28T17:37:41.257Z,62.56
2019-04-28T17:40:12.323Z,61.88
2019-04-28T17:42:42.834Z,62.66
2019-04-28T17:45:13.663Z,63.06
2019-04-28T17:47:44.521Z,63.69
2019-04-28T17:50:15.835Z,64.55
2019-04-28T17:52:46.526Z,67.85
2019-04-28T17:55:17.091Z,69.82
2019-04-28T17:57:47.686Z,70.79
2019-04-28T18:00:39.898Z,70.94
2019-04-28T18:03:27.142Z,71.05
2019-04-28T18:06:17.650Z,70.70
2019-04-28T18:08:42.286Z,69.85
2019-04-28T18:11:12.913Z,70.61
2019-04-28T18:13:43.537Z,71.64
2019-04-28T18:16:41.789Z,71.16
2019-04-28T18:19:15.048Z,72.06
2019-04-28T18:21:46.561Z,72.09
2019-04-28T18:24:17.094Z,71.53
2019-04-28T18:26:47.753Z,71.79
2019-04-28T18:29:18.523Z,73.12
2019-04-28T18:32:00.508Z,73.66
2019-04-28T18:34:39.969Z,74.25
2019-04-28T18:37:21.356Z,75.09
2019-04-28T18:40:29.191Z,76.25
2019-04-28T18:43:19.425Z,75.20
2019-04-28T18:45:50.667Z,75.82
2019-04-28T18:48:21.622Z,76.61
2019-04-28T18:50:52.062Z,76.76
2019-04-28T18:53:22.687Z,77.38
2019-04-28T18:55:53.398Z,77.39
2019-04-28T18:58:24.024Z,77.86
2019-04-28T19:01:07.601Z,78.62
2019-04-28T19:03:38.397Z,78.68
2019-04-28T19:06:09.042Z,78.11
2019-04-28T19:08:49.513Z,77.81
2019-04-28T19:11:42.252Z,78.29
2019-04-28T19:14:32.043Z,78.75
2019-04-28T19:17:23.796Z,78.85
2019-04-28T19:19:54.352Z,78.25
2019-04-28T19:22:25.241Z,78.13
2019-04-28T19:24:56.306Z,78.52
2019-04-28T19:27:26.707Z,78.82
2019-04-28T19:29:56.482Z,78.44
2019-04-28T19:32:25.956Z,78.32
2019-04-28T19:34:55.321Z,78.46
2019-04-28T19:37:26.122Z,78.44
2019-04-28T19:39:55.712Z,78.21
2019-04-28T19:42:26.326Z,76.88
2019-04-28T19:44:55.896Z,75.74
2019-04-28T19:47:25.323Z,76.47
2019-04-28T19:49:55.175Z,76.75
2019-04-28T19:52:24.949Z,77.02
2019-04-28T19:55:08.372Z,77.24
2019-04-28T19:57:56.743Z,77.15
2019-04-28T20:00:42.706Z,76.85
2019-04-28T20:03:15.536Z,77.05
2019-04-28T20:05:46.997Z,77.80
2019-04-28T20:08:17.601Z,78.55
2019-04-28T20:10:48.437Z,79.17
2019-04-28T20:13:19.194Z,79.50
2019-04-28T20:15:49.845Z,79.45
2019-04-28T20:18:20.272Z,79.53
2019-04-28T20:20:50.757Z,80.27
2019-04-28T20:23:21.421Z,80.11
2019-04-28T20:25:52.541Z,80.28
2019-04-28T20:28:23.058Z,80.71
2019-04-28T20:30:53.830Z,80.76
2019-04-28T20:33:24.463Z,80.88
2019-04-28T20:36:00.097Z,81.80
2019-04-28T20:38:32.788Z,82.89
2019-04-28T20:41:11.310Z,82.98
2019-04-28T20:43:41.688Z,83.33
2019-04-28T20:46:12.283Z,83.31
2019-04-28T20:48:43.167Z,83.30
2019-04-28T20:51:13.747Z,83.46
2019-04-28T20:53:44.528Z,83.46
2019-04-28T20:56:15.239Z,84.40
2019-04-28T20:58:46.815Z,84.07
2019-04-28T21:01:17.200Z,84.19
2019-04-28T21:03:47.621Z,84.98
2019-04-28T21:06:18.305Z,85.18
2019-04-28T21:08:48.552Z,85.22
2019-04-28T21:11:18.917Z,85.58
2019-04-28T21:13:49.486Z,85.91
2019-04-28T21:16:20.141Z,85.66
2019-04-28T21:18:50.525Z,85.37
2019-04-28T21:21:21.775Z,85.32
2019-04-28T21:23:52.141Z,85.91
2019-04-28T21:26:22.742Z,86.19
2019-04-28T21:28:53.154Z,86.61
2019-04-28T21:31:23.664Z,86.46
2019-04-28T21:33:54.404Z,86.40
2019-04-28T21:36:24.752Z,86.22
2019-04-28T21:38:55.137Z,86.04
2019-04-28T21:41:25.316Z,86.28
2019-04-28T21:44:17.597Z,86.76
2019-04-28T21:47:09.646Z,87.13
2019-04-28T21:49:41.301Z,87.25
2019-04-28T21:52:11.699Z,87.25
2019-04-28T21:54:42.842Z,87.13
2019-04-28T21:57:13.221Z,87.18
2019-04-28T21:59:43.500Z,87.10
2019-04-28T22:02:13.804Z,86.92
2019-04-28T22:04:46.814Z,86.98
2019-04-28T22:07:16.097Z,87.18
2019-04-28T22:09:46.347Z,87.91
2019-04-28T22:12:17.825Z,88.46
2019-04-28T22:14:48.208Z,89.44
2019-04-28T22:17:18.559Z,89.39
2019-04-28T22:19:48.914Z,89.09
2019-04-28T22:22:19.087Z,88.68
2019-04-28T22:24:55.995Z,88.27
2019-04-28T22:27:41.654Z,87.90
2019-04-28T22:30:10.852Z,87.74
2019-04-28T22:32:41.188Z,87.68
2019-04-28T22:35:12.023Z,87.77
2019-04-28T22:37:42.410Z,88.04
2019-04-28T22:40:12.812Z,87.92
2019-04-28T22:42:43.316Z,87.94
2019-04-28T22:45:14.005Z,87.91
2019-04-28T22:47:44.221Z,87.91
2019-04-28T22:50:51.853Z,87.92
2019-04-28T22:53:26.372Z,88.00
2019-04-28T22:56:22.141Z,88.24
2019-04-28T22:58:56.672Z,88.51
2019-04-28T23:01:30.263Z,89.02
2019-04-28T23:04:08.501Z,88.98
2019-04-28T23:06:38.742Z,88.75
2019-04-28T23:09:16.728Z,89.41
2019-04-28T23:11:47.882Z,89.81
2019-04-28T23:14:18.162Z,90.00
2019-04-28T23:16:48.943Z,90.00
2019-04-28T23:19:21.003Z,89.66
2019-04-28T23:22:03.817Z,89.29
2019-04-28T23:24:34.252Z,88.90
2019-04-28T23:27:04.467Z,88.76
2019-04-28T23:29:34.876Z,88.88
2019-04-28T23:32:07.421Z,89.03
2019-04-28T23:34:38.208Z,89.07
2019-04-28T23:37:09.113Z,89.22
2019-04-28T23:39:39.364Z,89.46
2019-04-28T23:42:40.891Z,89.72
2019-04-28T23:45:12.329Z,90.15
2019-04-28T23:47:42.571Z,90.13
2019-04-28T23:50:14.535Z,90.32
2019-04-28T23:53:06.221Z,90.76
2019-04-28T23:55:36.447Z,90.88
2019-04-28T23:58:06.604Z,91.10
